Laguna Park, Texas
Current Conditions -  °F | °C
As of 7:51 AM on Monday 20 Oct 2014 (Local Time) from KACT Reporting Station
Haze Haze  
Wind Chill: 56°   Ceiling: Unl
Heat Index: 56°   Visibility: 6mi
Dew Point: 55°   Wind: 3mph
Humidity: 97%   Direction: 10°N
Pressure: 30.07"   Gusts: NA
Location:  31.86°N, 97.38°W
Report Text: KACT 201251Z 01003KT 6SM BR CLR 13/13 A3007 RMK AO2 SLP179 T01330128
Loading
Personal Weather Stations






























Interactive Weather Map
Tropical Storm Tracking
New forecast layout! Learn more

10-Day Weather Forecast

Advertisements
Track Severe Weather on mobile